Terminal Aerodrome Forecast
Issued by NWS Quad Cities IA IL

Home | Current Version | Previous Version | Text Only | Print | Product List | Glossary On
Versions: 1 2 3 4 5 6 7 8 9 10 11 12 13 14 15 16 17 18 19 20
753
FTUS43 KDVN 131857 AAA
TAFMLI
TAF AMD
KMLI 131857Z 1319/1418 30025G36KT P6SM OVC018
     FM140200 33016KT P6SM OVC025
     FM140900 34006KT P6SM OVC050=

USA.gov is the U.S. government's official web portal to all federal, state and local government web resources and services.